• Join FlightAware (Why Join?)
  • Login
  • US Flag 
10:12AM EDT


 

Airport Tracker/Info


-or-


 

Live Flight TrackerFlight Track Log ✈ SWA655 ✈ 26-Apr-2013 ✈ KSNA - KOAK

Flight Track Log - Related Links

Times and Time Zones

All times are in EDT time to prevent confusion due to time zone crossing. See the SWA655 flight status page for this flight to view local times or setup timezone preferences in your user account.

Time Position Orientation Groundspeed Altitude Reporting Facility
EDT Latitude Longitude Course Direction KTS MPH feet Rate Location/Type
02:23PM 33.6578 -117.8786 320° Northwest 155 178 1,200  Level Los Angeles Center
02:24PM 33.6089 -117.8944 195° South 156 180 3,100 2,100 Climbing Los Angeles Center
02:25PM 33.5539 -117.9092 193° South 190 219 5,600 3,000 Climbing Los Angeles Center
02:27PM 33.5214 -117.9742 239° Southwest 232 267 9,300 2,940 Climbing Los Angeles Center
02:28PM 33.5697 -118.0411 311° West 276 318 11,700 2,580 Climbing Los Angeles Center
02:29PM 34.0608 -118.2575 320° Northwest  Level Estimated
02:29PM 33.6394 -118.1169 318° Northwest 326 375 14,700  Level Los Angeles Center
02:30PM 33.7261 -118.2100 318° Northwest 350 403 18,700 3,180 Climbing Los Angeles Center
02:31PM 33.8017 -118.2906 318° Northwest 376 433 21,300 2,460 Climbing Los Angeles Center
02:32PM 33.8806 -118.3758 318° Northwest 389 448 23,800 2,280 Climbing Los Angeles Center
02:33PM 33.9736 -118.4525 326° Northwest 411 473 26,100 2,280 Climbing Los Angeles Center
02:34PM 34.1036 -118.5161 338° Northwest 419 482 28,600 2,040 Climbing Los Angeles Center
02:35PM 34.2153 -118.5700 338° Northwest 430 495 30,400 1,680 Climbing Los Angeles Center
02:36PM 34.3294 -118.6272 338° Northwest 443 510 32,100 1,860 Climbing Los Angeles Center
02:37PM 34.4419 -118.6808 339° North 438 504 34,300 1,800 Climbing Los Angeles Center
02:38PM 34.5517 -118.7361 337° Northwest 429 494 35,900 1,380 Climbing Los Angeles Center
02:39PM 34.6631 -118.7908 338° Northwest 431 496 37,200 1,440 Climbing Los Angeles Center
02:40PM 34.7939 -118.8592 337° Northwest 428 493 39,000 1,260 Climbing Los Angeles Center
02:41PM 34.8858 -118.9442 323° Northwest 421 484 39,900 480 Climbing Los Angeles Center
02:42PM 34.9731 -119.0231 323° Northwest 418 481 40,000  Climbing Los Angeles Center
02:43PM 35.0808 -119.1336 320° Northwest 423 487 40,000  Level Los Angeles Center
02:44PM 35.1744 -119.2217 322° Northwest 426 490 40,000  Level Los Angeles Center
02:45PM 35.2656 -119.3119 321° Northwest 423 487 40,000  Level Los Angeles Center
02:46PM 35.3572 -119.4022 321° Northwest 422 486 40,000  Level Los Angeles Center
02:47PM 35.4086 -119.4539 321° Northwest 421 484 40,000  Level Oakland Center
02:48PM 35.4986 -119.5450 321° Northwest 421 484 40,000  Level Oakland Center
02:49PM 35.6092 -119.6531 322° Northwest 425 489 40,000  Level Oakland Center
02:50PM 35.6994 -119.7431 321° Northwest 423 487 40,000  Level Oakland Center
02:51PM 35.7900 -119.8336 321° Northwest 424 488 40,000  Level Oakland Center
02:52PM 35.8789 -119.9236 321° Northwest 421 484 40,000  Level Oakland Center
02:53PM 35.9692 -120.0144 321° Northwest 423 487 40,000  Level Oakland Center
02:54PM 36.0606 -120.1056 321° Northwest 425 489 40,000 -480 Level Oakland Center
02:55PM 36.1511 -120.1983 320° Northwest 426 490 39,100 -2,160 Descending Oakland Center
02:56PM 36.2606 -120.3108 320° Northwest 429 494 35,600 -2,820 Descending Oakland Center
02:57PM 36.3536 -120.4078 320° Northwest 437 503 33,400 -2,580 Descending Oakland Center
02:58PM 36.4461 -120.5008 321° Northwest 430 495 30,400 -2,580 Descending Oakland Center
02:59PM 36.5383 -120.5947 321° Northwest 430 495 28,200 -2,160 Descending Oakland Center
03:00PM 36.6267 -120.6889 319° Northwest 418 481 26,000 -2,100 Descending Oakland Center
03:01PM 36.7133 -120.7786 320° Northwest 408 470 23,900 -1,680 Descending Oakland Center
03:02PM 36.7961 -120.8672 319° Northwest 393 452 22,600 -1,620 Descending Oakland Center
03:03PM 36.8775 -120.9606 317° Northwest 380 437 20,600 -1,860 Descending Oakland Center
03:04PM 36.9525 -121.0472 317° Northwest 369 425 18,900 -1,800 Descending Oakland Center
03:05PM 37.0375 -121.1444 318° Northwest 348 400 17,000 -1,860 Descending Oakland Center
03:06PM 37.1056 -121.2244 317° Northwest 337 388 15,100 -1,860 Descending Oakland Center
03:07PM 37.1725 -121.3031 317° Northwest 331 381 13,200 -1,740 Descending Oakland Center
03:08PM 37.2369 -121.3775 317° Northwest 319 367 11,600 -1,380 Descending Oakland Center
03:09PM 37.3003 -121.4511 317° Northwest 310 357 10,400 -1,440 Descending Oakland Center
03:10PM 37.3597 -121.5203 317° Northwest 288 331 8,700 -1,620 Descending Oakland Center
03:11PM 37.4000 -121.5667 318° Northwest 290 334 7,900 -780 Descending Northern Cal TRACON
03:12PM 37.4500 -121.6333 313° West 284 327 7,500 -240 Descending Northern Cal TRACON
03:13PM 37.5167 -121.7000 322° Northwest 283 326 7,500 -660 Level Northern Cal TRACON
03:14PM 37.5333 -121.8000 282° West 281 323 6,200 -1,020 Descending Northern Cal TRACON
03:15PM 37.5500 -121.8833 284° West 258 297 5,500 -1,140 Descending Northern Cal TRACON
03:16PM 37.5667 -121.9667 284° West 265 305 4,000 -1,080 Descending Northern Cal TRACON
03:17PM 37.5833 -122.0500 284° West 236 272 3,500 -960 Descending Northern Cal TRACON
03:18PM 37.6333 -122.1000 322° Northwest 207 238 2,100 -1,200 Descending Northern Cal TRACON
03:19PM 37.6453 -122.1300 297° West 216 249 1,600 -780 Descending Oakland Center
03:20PM 37.6711 -122.1703 309° West 173 199 900 -720 Descending Oakland Center
03:21PM 37.6933 -122.2022 311° West 139 160 200 -720 Descending Oakland Center
03:24PM 37.7167 -122.2167 270° West  Level FlightAware Approximate